Time;durP1;ratioP1;P1;durP2;ratioP2;P2;SDS_P1;SDS_P2;PMS_P1;PMS_P2;Temp;Humidity;BMP_temperature;BMP_pressure;BME280_temperature;BME280_humidity;BME280_pressure;Samples;Min_cycle;Max_cycle;Signal;HPM_P1;HPM_P2
2021/04/29 00:00:32;;;;;;;8.88;4.78;;;11.00;51.30;;;;;;2063710;28;20419;-87
2021/04/29 00:01:33;;;;;;;9.50;4.82;;;11.00;50.70;;;;;;2072077;28;20113;-87
2021/04/29 00:02:34;;;;;;;7.22;4.25;;;11.00;50.80;;;;;;2071496;28;20030;-87
2021/04/29 00:03:34;;;;;;;9.15;4.82;;;11.00;50.90;;;;;;2080217;28;20017;-86
2021/04/29 00:04:35;;;;;;;8.57;4.78;;;11.00;50.90;;;;;;2080255;28;20068;-87
2021/04/29 00:05:37;;;;;;;8.23;4.90;;;11.00;51.00;;;;;;2072189;28;20022;-88
2021/04/29 00:06:37;;;;;;;7.80;4.50;;;11.00;51.10;;;;;;2074213;28;20103;-87
2021/04/29 00:07:38;;;;;;;7.97;4.80;;;11.00;51.10;;;;;;2087644;28;20061;-85
2021/04/29 00:08:39;;;;;;;9.00;5.00;;;11.00;51.30;;;;;;2088814;28;20054;-86
2021/04/29 00:09:39;;;;;;;7.40;4.20;;;10.90;51.30;;;;;;2084702;28;20021;-85
2021/04/29 00:10:40;;;;;;;6.57;4.43;;;10.90;51.20;;;;;;2077989;28;20147;-86
2021/04/29 00:11:41;;;;;;;6.13;4.13;;;10.90;51.30;;;;;;2080393;28;20400;-86
2021/04/29 00:12:42;;;;;;;8.50;4.70;;;10.90;51.30;;;;;;2077640;28;20033;-86
2021/04/29 00:13:43;;;;;;;7.22;4.25;;;10.90;51.40;;;;;;2075447;28;20500;-86
2021/04/29 00:14:43;;;;;;;8.27;4.50;;;10.90;51.40;;;;;;2077870;28;20033;-86
2021/04/29 00:15:47;;;;;;;7.55;4.75;;;10.90;51.50;;;;;;2087289;28;20052;-85
2021/04/29 00:16:48;;;;;;;7.55;4.65;;;10.90;51.60;;;;;;2080220;28;20480;-86
2021/04/29 00:17:48;;;;;;;9.85;4.90;;;10.90;51.60;;;;;;2067198;28;20030;-85
2021/04/29 00:18:49;;;;;;;7.68;4.72;;;10.90;51.70;;;;;;2074924;28;20021;-86
2021/04/29 00:19:50;;;;;;;8.95;4.82;;;10.90;51.80;;;;;;2071869;28;20621;-85
2021/04/29 00:20:57;;;;;;;8.20;4.63;;;10.80;51.70;;;;;;2075523;28;20045;-86
2021/04/29 00:21:58;;;;;;;7.82;4.70;;;10.80;51.90;;;;;;2082527;28;20036;-84
2021/04/29 00:22:58;;;;;;;8.30;5.05;;;10.80;51.90;;;;;;2073184;28;20018;-86
2021/04/29 00:23:59;;;;;;;8.07;5.25;;;10.80;52.00;;;;;;2063873;28;20543;-86
2021/04/29 00:25:00;;;;;;;9.15;4.63;;;10.80;52.10;;;;;;2067617;28;20073;-86
2021/04/29 00:26:00;;;;;;;8.77;4.80;;;10.80;52.20;;;;;;2085068;28;20030;-85
2021/04/29 00:27:01;;;;;;;8.30;4.50;;;10.80;52.20;;;;;;2075904;28;20060;-86
2021/04/29 00:28:02;;;;;;;7.20;4.38;;;10.70;52.70;;;;;;2080210;28;20526;-85
2021/04/29 00:29:03;;;;;;;6.90;4.30;;;10.70;52.20;;;;;;2073026;28;20041;-86
2021/04/29 00:30:05;;;;;;;8.15;5.20;;;10.80;52.40;;;;;;2061681;28;20066;-85
2021/04/29 00:31:06;;;;;;;8.18;4.78;;;10.80;52.50;;;;;;2076314;28;20041;-86
2021/04/29 00:32:07;;;;;;;8.30;5.00;;;10.70;52.40;;;;;;2083446;28;20033;-85
2021/04/29 00:33:07;;;;;;;7.43;4.68;;;10.70;52.50;;;;;;2073551;28;20033;-86
2021/04/29 00:34:08;;;;;;;8.65;5.10;;;10.70;52.60;;;;;;2083266;28;20132;-86
2021/04/29 00:35:10;;;;;;;7.97;5.00;;;10.70;52.70;;;;;;2074404;28;20033;-86
2021/04/29 00:36:10;;;;;;;8.10;4.80;;;10.70;52.70;;;;;;2066870;28;20426;-87
2021/04/29 00:37:11;;;;;;;10.30;4.60;;;10.70;52.80;;;;;;2090124;28;20030;-86
2021/04/29 00:38:11;;;;;;;9.27;5.32;;;10.70;52.80;;;;;;2083247;28;20053;-87
2021/04/29 00:39:12;;;;;;;7.53;4.63;;;10.60;52.90;;;;;;2083108;28;20025;-87
2021/04/29 00:40:14;;;;;;;7.97;4.53;;;10.60;52.90;;;;;;2082250;28;20507;-86
2021/04/29 00:41:15;;;;;;;6.97;4.22;;;10.60;52.90;;;;;;2093457;28;20108;-87
2021/04/29 00:42:16;;;;;;;8.13;4.60;;;10.60;53.00;;;;;;2080663;28;20061;-87
2021/04/29 00:43:17;;;;;;;8.07;4.90;;;10.60;53.10;;;;;;2080483;28;20122;-87
2021/04/29 00:44:19;;;;;;;9.18;5.60;;;10.60;53.10;;;;;;2067995;28;20034;-86
2021/04/29 00:45:19;;;;;;;9.57;5.22;;;10.60;53.30;;;;;;2073050;28;20570;-87
2021/04/29 00:46:21;;;;;;;7.45;4.90;;;10.60;53.30;;;;;;2078419;28;20026;-86
2021/04/29 00:47:21;;;;;;;7.40;4.70;;;10.60;53.30;;;;;;2075562;28;20747;-87
2021/04/29 00:48:22;;;;;;;9.85;5.28;;;10.60;53.40;;;;;;2072927;28;20062;-87
2021/04/29 00:49:23;;;;;;;9.18;4.88;;;10.60;53.40;;;;;;2081269;28;20032;-87
2021/04/29 00:50:25;;;;;;;7.85;5.03;;;10.60;53.50;;;;;;2061483;28;20516;-87
2021/04/29 00:51:26;;;;;;;8.63;4.93;;;10.60;53.50;;;;;;2055815;28;20406;-87
2021/04/29 00:52:29;;;;;;;9.82;4.85;;;10.60;53.60;;;;;;2058429;28;20480;-86
2021/04/29 00:53:38;;;;;;;11.18;5.05;;;10.50;53.60;;;;;;2062766;28;20474;-87
2021/04/29 00:54:39;;;;;;;8.80;5.60;;;10.60;53.80;;;;;;2063907;28;20416;-86
2021/04/29 00:55:40;;;;;;;7.13;4.80;;;10.50;53.80;;;;;;2066906;28;20030;-87
2021/04/29 00:56:40;;;;;;;6.85;4.45;;;10.50;53.80;;;;;;2074721;28;20499;-87
2021/04/29 00:57:41;;;;;;;7.43;5.07;;;10.50;53.80;;;;;;2081120;28;20535;-87
2021/04/29 00:58:42;;;;;;;6.97;4.50;;;10.50;53.80;;;;;;2067229;28;20393;-87
2021/04/29 00:59:42;;;;;;;8.63;4.68;;;10.50;53.90;;;;;;2064570;28;20551;-86
2021/04/29 01:00:43;;;;;;;7.35;4.60;;;10.50;53.90;;;;;;2074585;28;20029;-86
2021/04/29 01:01:47;;;;;;;6.40;4.03;;;10.50;54.00;;;;;;2073671;28;20534;-86
2021/04/29 01:02:54;;;;;;;7.65;4.20;;;10.50;54.00;;;;;;2076197;28;20073;-86
2021/04/29 01:04:00;;;;;;;6.07;4.05;;;10.50;54.00;;;;;;2077424;28;20021;-87
2021/04/29 01:05:12;;;;;;;6.65;4.35;;;10.50;54.60;;;;;;2076542;28;20029;-86
2021/04/29 01:06:19;;;;;;;6.70;3.92;;;10.50;54.10;;;;;;2076176;28;20026;-87
2021/04/29 01:07:22;;;;;;;6.30;3.47;;;10.50;54.10;;;;;;2078853;28;20026;-87
2021/04/29 01:08:53;;;;;;;7.95;4.15;;;10.50;54.10;;;;;;2090057;28;20487;-87
2021/04/29 01:10:08;;;;;;;6.15;3.90;;;10.40;54.30;;;;;;2083990;28;20052;-87
2021/04/29 01:11:18;;;;;;;6.55;3.85;;;10.40;54.10;;;;;;2078721;28;20105;-87
2021/04/29 01:12:26;;;;;;;7.25;4.13;;;10.50;54.20;;;;;;2080300;28;20477;-87
2021/04/29 01:13:31;;;;;;;6.15;3.72;;;10.40;54.10;;;;;;2087536;28;20112;-87
2021/04/29 01:14:32;;;;;;;7.45;3.90;;;10.40;54.20;;;;;;2091311;28;20348;-87
2021/04/29 01:15:37;;;;;;;6.35;4.10;;;10.40;54.40;;;;;;2078819;28;20025;-87
2021/04/29 01:16:39;;;;;;;5.97;4.05;;;10.40;54.40;;;;;;2080096;28;20152;-85
2021/04/29 01:17:44;;;;;;;8.32;4.25;;;10.30;54.50;;;;;;2071767;28;20022;-87
2021/04/29 01:18:46;;;;;;;7.35;5.00;;;10.30;54.60;;;;;;2071051;28;20041;-87
2021/04/29 01:20:06;;;;;;;7.18;4.50;;;10.30;54.80;;;;;;2062876;28;20088;-86
2021/04/29 01:21:12;;;;;;;7.15;4.30;;;10.30;54.90;;;;;;2073659;28;20096;-87
2021/04/29 01:22:14;;;;;;;7.88;4.80;;;10.30;54.90;;;;;;2082768;28;20021;-87
2021/04/29 01:23:24;;;;;;;8.13;4.70;;;10.20;55.00;;;;;;2072110;28;20064;-86
2021/04/29 01:24:26;;;;;;;7.72;4.80;;;10.30;55.20;;;;;;2078440;28;20022;-86
2021/04/29 01:25:29;;;;;;;6.88;4.43;;;10.20;55.30;;;;;;2069646;28;20117;-86
2021/04/29 01:26:32;;;;;;;7.97;4.78;;;10.20;55.30;;;;;;2073362;28;20030;-86
2021/04/29 01:27:34;;;;;;;8.10;5.03;;;10.20;55.40;;;;;;2082019;28;20461;-86
2021/04/29 01:28:35;;;;;;;7.82;4.90;;;10.10;55.60;;;;;;2074336;28;20424;-86
2021/04/29 01:29:37;;;;;;;7.80;4.78;;;10.10;55.60;;;;;;2070040;28;20113;-87
2021/04/29 01:30:39;;;;;;;7.45;4.57;;;10.10;55.70;;;;;;2064667;28;20539;-87
2021/04/29 01:31:42;;;;;;;8.63;4.50;;;10.00;55.80;;;;;;2075224;28;20021;-87
2021/04/29 01:32:44;;;;;;;7.78;4.68;;;10.10;56.60;;;;;;2077135;28;20033;-87
2021/04/29 01:33:45;;;;;;;7.00;4.60;;;10.00;56.00;;;;;;2075135;28;20143;-87
2021/04/29 01:34:47;;;;;;;9.50;4.68;;;10.00;56.10;;;;;;2074568;28;20511;-87
2021/04/29 01:35:48;;;;;;;7.60;5.00;;;10.00;56.20;;;;;;2068935;28;20038;-87
2021/04/29 01:36:51;;;;;;;7.90;5.10;;;10.00;56.30;;;;;;2074360;28;20452;-86
2021/04/29 01:37:53;;;;;;;8.23;4.97;;;9.90;56.90;;;;;;2066040;28;20093;-87
2021/04/29 01:39:04;;;;;;;8.27;4.78;;;9.90;56.40;;;;;;2066881;28;20038;-87
2021/04/29 01:40:08;;;;;;;7.35;4.68;;;9.90;56.40;;;;;;2077564;28;20061;-87
2021/04/29 01:41:08;;;;;;;8.23;4.75;;;9.90;56.50;;;;;;2078274;28;20026;-87
2021/04/29 01:42:09;;;;;;;7.68;4.95;;;9.90;56.50;;;;;;2079356;28;20108;-86
2021/04/29 01:43:10;;;;;;;7.70;4.80;;;9.90;56.70;;;;;;2089239;28;20112;-87
2021/04/29 01:44:12;;;;;;;7.03;4.57;;;9.90;56.70;;;;;;2061610;28;20098;-86
2021/04/29 01:45:13;;;;;;;7.05;4.43;;;9.90;56.70;;;;;;2068842;28;20065;-86
2021/04/29 01:46:14;;;;;;;7.63;4.50;;;9.90;56.80;;;;;;2085195;28;20025;-87
2021/04/29 01:47:15;;;;;;;6.60;4.43;;;9.90;56.80;;;;;;2082139;28;20026;-87
2021/04/29 01:48:16;;;;;;;6.22;4.38;;;9.80;56.80;;;;;;2081228;28;20029;-87
2021/04/29 01:49:18;;;;;;;6.68;4.28;;;9.80;56.90;;;;;;2079785;28;20083;-87
2021/04/29 01:50:19;;;;;;;6.60;4.35;;;9.80;56.90;;;;;;2086551;28;20701;-87
2021/04/29 01:51:22;;;;;;;7.60;4.53;;;9.80;57.00;;;;;;2063773;28;20032;-87
2021/04/29 01:52:24;;;;;;;6.85;4.50;;;9.80;57.10;;;;;;2059845;28;20879;-87
2021/04/29 01:53:25;;;;;;;6.00;4.13;;;9.80;57.20;;;;;;2087454;28;20064;-87
2021/04/29 01:54:26;;;;;;;7.22;4.70;;;9.80;57.20;;;;;;2086234;28;20025;-85
2021/04/29 01:55:27;;;;;;;8.02;4.50;;;9.80;57.30;;;;;;2081773;28;20025;-85
2021/04/29 01:56:28;;;;;;;7.80;4.88;;;9.80;57.40;;;;;;2066785;28;20044;-87
2021/04/29 01:57:29;;;;;;;7.60;5.00;;;9.80;57.40;;;;;;2066060;28;20145;-87
2021/04/29 01:58:30;;;;;;;7.43;5.25;;;9.70;57.50;;;;;;2089673;28;20423;-87
2021/04/29 01:59:31;;;;;;;8.02;4.90;;;9.70;57.60;;;;;;2072233;28;20113;-87
2021/04/29 02:00:31;;;;;;;8.27;5.05;;;9.70;57.60;;;;;;2073060;28;20559;-87
2021/04/29 02:01:34;;;;;;;7.22;4.55;;;9.70;57.60;;;;;;2057254;28;20521;-87
2021/04/29 02:02:35;;;;;;;8.50;6.05;;;9.70;57.70;;;;;;2065641;28;20035;-88
2021/04/29 02:03:35;;;;;;;8.40;5.18;;;9.70;57.90;;;;;;2082671;28;20025;-87
2021/04/29 02:04:36;;;;;;;8.48;4.93;;;9.70;58.00;;;;;;2081401;28;20072;-87
2021/04/29 02:05:37;;;;;;;7.60;5.18;;;9.70;58.10;;;;;;2065624;28;20038;-88
2021/04/29 02:06:39;;;;;;;9.25;5.35;;;9.70;58.20;;;;;;2072273;28;20049;-88
2021/04/29 02:07:39;;;;;;;8.50;5.20;;;9.70;58.10;;;;;;2077235;28;20061;-88
2021/04/29 02:08:40;;;;;;;7.97;5.20;;;9.70;58.20;;;;;;2077451;28;20199;-85
2021/04/29 02:09:41;;;;;;;8.13;5.15;;;9.60;58.20;;;;;;2075342;28;20053;-85
2021/04/29 02:10:41;;;;;;;7.40;4.88;;;9.60;58.20;;;;;;2078597;28;20407;-87
2021/04/29 02:11:58;;;;;;;7.72;5.00;;;9.70;58.30;;;;;;2069851;28;20038;-86
2021/04/29 02:13:00;;;;;;;7.43;4.72;;;9.70;58.40;;;;;;2085222;28;20068;-87
2021/04/29 02:14:04;;;;;;;6.95;5.10;;;9.70;58.30;;;;;;2089936;28;20029;-86
2021/04/29 02:15:08;;;;;;;9.43;4.60;;;9.70;58.40;;;;;;2089615;28;20021;-87
2021/04/29 02:16:21;;;;;;;7.50;5.00;;;9.60;58.30;;;;;;2082649;28;20105;-87
2021/04/29 02:17:33;;;;;;;8.40;5.13;;;9.70;58.40;;;;;;2081801;28;20174;-87
2021/04/29 02:18:35;;;;;;;6.95;4.45;;;9.70;58.40;;;;;;2094968;28;20028;-87
2021/04/29 02:19:40;;;;;;;7.95;5.13;;;9.70;58.30;;;;;;2092339;28;20033;-87
2021/04/29 02:20:45;;;;;;;7.47;4.78;;;9.70;58.40;;;;;;2074020;28;20034;-87
2021/04/29 02:21:48;;;;;;;7.90;4.50;;;9.70;58.40;;;;;;2078207;28;20492;-87
2021/04/29 02:22:51;;;;;;;7.40;4.55;;;9.70;59.00;;;;;;2087812;28;20025;-87
2021/04/29 02:23:52;;;;;;;9.15;5.03;;;9.70;58.50;;;;;;2077071;28;20076;-88
2021/04/29 02:24:55;;;;;;;6.07;4.22;;;9.70;58.50;;;;;;2076607;28;20045;-88
2021/04/29 02:26:00;;;;;;;7.03;4.53;;;9.70;58.50;;;;;;2074531;28;20029;-88
2021/04/29 02:27:02;;;;;;;8.35;4.45;;;9.70;58.50;;;;;;2085972;28;20025;-87
2021/04/29 02:28:03;;;;;;;7.55;4.88;;;9.70;58.50;;;;;;2077479;28;20034;-87
2021/04/29 02:29:08;;;;;;;7.43;4.40;;;9.70;58.50;;;;;;2073493;28;20030;-87
2021/04/29 02:30:13;;;;;;;8.55;4.50;;;9.70;58.60;;;;;;2074296;28;20034;-87
2021/04/29 02:31:14;;;;;;;6.70;4.60;;;9.70;58.60;;;;;;2081591;28;20037;-86
2021/04/29 02:32:16;;;;;;;6.22;4.30;;;9.70;58.60;;;;;;2070618;28;20038;-87
2021/04/29 02:33:20;;;;;;;6.50;4.30;;;9.70;59.00;;;;;;2075658;28;20034;-87
2021/04/29 02:34:21;;;;;;;7.10;4.57;;;9.80;58.80;;;;;;2074846;28;20046;-87
2021/04/29 02:35:22;;;;;;;6.20;4.30;;;9.80;58.70;;;;;;2086401;28;20025;-87
2021/04/29 02:36:23;;;;;;;6.85;4.72;;;9.80;58.80;;;;;;2083297;28;20483;-88
2021/04/29 02:37:24;;;;;;;6.20;4.20;;;9.80;58.80;;;;;;2075774;28;20025;-88
2021/04/29 02:38:25;;;;;;;8.13;4.65;;;9.80;58.80;;;;;;2075555;28;20124;-88
2021/04/29 02:39:27;;;;;;;7.07;4.50;;;9.80;58.80;;;;;;2078150;28;20025;-88
2021/04/29 02:40:29;;;;;;;6.72;4.60;;;9.80;58.80;;;;;;2083464;28;20572;-88
2021/04/29 02:41:30;;;;;;;7.43;4.45;;;9.80;58.90;;;;;;2080737;28;20533;-87
2021/04/29 02:42:32;;;;;;;7.28;4.70;;;9.80;59.00;;;;;;2069774;28;20061;-88
2021/04/29 02:43:34;;;;;;;6.93;4.45;;;9.70;59.00;;;;;;2072919;28;20026;-88
2021/04/29 02:44:36;;;;;;;6.47;4.60;;;9.70;59.00;;;;;;2081152;28;20029;-88
2021/04/29 02:45:37;;;;;;;7.43;5.10;;;9.70;59.10;;;;;;2097705;28;20032;-88
2021/04/29 02:46:42;;;;;;;7.50;5.05;;;9.80;59.20;;;;;;2092652;28;20058;-88
2021/04/29 02:47:47;;;;;;;8.15;4.78;;;9.70;59.20;;;;;;2093783;28;20127;-86
2021/04/29 02:48:48;;;;;;;7.35;5.03;;;9.70;59.30;;;;;;2079961;28;20029;-88
2021/04/29 02:49:49;;;;;;;8.00;5.22;;;9.70;59.40;;;;;;2064947;28;20057;-87
2021/04/29 02:50:49;;;;;;;7.90;5.38;;;9.70;59.40;;;;;;2061703;28;20165;-87
2021/04/29 02:51:51;;;;;;;9.27;5.60;;;9.70;59.60;;;;;;2070406;28;20033;-87
2021/04/29 02:52:53;;;;;;;9.20;5.78;;;9.70;59.60;;;;;;2058472;28;20056;-88
2021/04/29 02:53:53;;;;;;;7.63;5.20;;;9.70;59.70;;;;;;2069926;28;20022;-88
2021/04/29 02:54:54;;;;;;;7.43;5.13;;;9.70;59.70;;;;;;2085577;28;20061;-87
2021/04/29 02:55:56;;;;;;;7.88;5.30;;;9.60;59.70;;;;;;2094816;28;20067;-88
2021/04/29 02:56:57;;;;;;;8.82;6.13;;;9.60;59.80;;;;;;2077130;28;20395;-88
2021/04/29 02:58:01;;;;;;;8.60;5.95;;;9.60;60.00;;;;;;2076903;28;20025;-88
2021/04/29 02:59:02;;;;;;;8.60;5.80;;;9.60;60.10;;;;;;2062095;28;20034;-87
2021/04/29 03:00:05;;;;;;;8.00;5.50;;;9.60;60.00;;;;;;2070789;28;20025;-87
2021/04/29 03:01:06;;;;;;;8.52;5.93;;;9.60;60.10;;;;;;2069159;28;20121;-88
2021/04/29 03:02:10;;;;;;;9.35;5.88;;;9.60;60.10;;;;;;2057694;28;20046;-87
2021/04/29 03:03:11;;;;;;;8.27;5.82;;;9.60;60.80;;;;;;2065812;28;20473;-88
2021/04/29 03:04:11;;;;;;;8.30;5.90;;;9.60;60.20;;;;;;2081868;28;20162;-86
2021/04/29 03:05:14;;;;;;;8.15;5.90;;;9.60;60.30;;;;;;2079823;28;20415;-87
2021/04/29 03:06:14;;;;;;;7.63;5.30;;;9.60;60.30;;;;;;2082935;28;20076;-86
2021/04/29 03:07:15;;;;;;;8.55;5.20;;;9.60;60.30;;;;;;2068786;28;20054;-86
2021/04/29 03:08:16;;;;;;;7.22;5.22;;;9.60;60.30;;;;;;2072742;28;20021;-86
2021/04/29 03:09:17;;;;;;;7.93;5.60;;;9.60;60.40;;;;;;2083418;28;20668;-87
2021/04/29 03:10:18;;;;;;;7.93;5.05;;;9.60;60.30;;;;;;2088860;28;20082;-87
2021/04/29 03:11:18;;;;;;;8.10;5.20;;;9.60;60.30;;;;;;2081001;28;20032;-88
2021/04/29 03:12:19;;;;;;;8.45;4.90;;;9.60;60.40;;;;;;2067959;28;20132;-88
2021/04/29 03:13:20;;;;;;;7.70;5.10;;;9.60;60.40;;;;;;2081320;28;20027;-88
2021/04/29 03:14:20;;;;;;;8.15;5.00;;;9.60;60.50;;;;;;2086659;28;20501;-87
2021/04/29 03:15:21;;;;;;;7.75;4.93;;;9.60;60.50;;;;;;2088633;28;20025;-87
2021/04/29 03:16:22;;;;;;;7.50;4.88;;;9.70;60.50;;;;;;2080246;28;20057;-87
2021/04/29 03:17:22;;;;;;;7.85;5.28;;;9.60;60.60;;;;;;2078649;28;20033;-87
2021/04/29 03:18:23;;;;;;;8.52;5.32;;;9.70;60.60;;;;;;2064355;28;20030;-87
2021/04/29 03:19:23;;;;;;;7.65;5.22;;;9.70;60.60;;;;;;2078444;28;20124;-86
2021/04/29 03:20:24;;;;;;;7.53;4.97;;;9.70;60.60;;;;;;2084586;28;20033;-87
2021/04/29 03:21:25;;;;;;;6.88;4.97;;;9.70;60.70;;;;;;2088219;28;20076;-87
2021/04/29 03:22:26;;;;;;;7.85;4.93;;;9.60;60.60;;;;;;2078860;28;20124;-88
2021/04/29 03:23:26;;;;;;;7.43;4.95;;;9.70;60.70;;;;;;2069218;28;20053;-87
2021/04/29 03:24:27;;;;;;;7.80;4.68;;;9.70;60.70;;;;;;2071804;28;20037;-87
2021/04/29 03:25:27;;;;;;;8.77;4.93;;;9.70;60.70;;;;;;2056005;28;20027;-87
2021/04/29 03:26:28;;;;;;;7.47;4.78;;;9.70;60.80;;;;;;2063587;28;20039;-87
2021/04/29 03:27:31;;;;;;;7.78;4.68;;;9.70;60.90;;;;;;2067162;28;20029;-86
2021/04/29 03:28:31;;;;;;;6.65;4.82;;;9.70;60.90;;;;;;2069272;28;20041;-86
2021/04/29 03:29:32;;;;;;;6.50;4.55;;;9.70;60.90;;;;;;2072382;28;20030;-86
2021/04/29 03:30:33;;;;;;;6.50;4.80;;;9.70;60.90;;;;;;2073509;28;20038;-86
2021/04/29 03:31:34;;;;;;;7.93;4.70;;;9.70;60.90;;;;;;2079147;28;20138;-87
2021/04/29 03:32:34;;;;;;;7.28;4.57;;;9.70;60.90;;;;;;2087149;28;20394;-86
2021/04/29 03:33:35;;;;;;;7.07;4.80;;;9.70;61.00;;;;;;2090745;28;20564;-86
2021/04/29 03:34:36;;;;;;;6.63;4.70;;;9.70;61.00;;;;;;2088539;28;20037;-87
2021/04/29 03:35:37;;;;;;;7.57;4.97;;;9.70;61.00;;;;;;2088546;28;20037;-87
2021/04/29 03:36:37;;;;;;;8.80;4.95;;;9.70;61.00;;;;;;2087113;28;20022;-86
2021/04/29 03:37:38;;;;;;;7.00;4.88;;;9.70;61.00;;;;;;2087434;28;20036;-86
2021/04/29 03:38:39;;;;;;;7.05;4.38;;;9.70;61.00;;;;;;2071248;28;20061;-86
2021/04/29 03:39:39;;;;;;;7.82;5.05;;;9.70;61.00;;;;;;2065916;28;20050;-86
2021/04/29 03:40:40;;;;;;;7.38;4.80;;;9.80;61.00;;;;;;2073770;28;20083;-86
2021/04/29 03:41:41;;;;;;;7.03;4.55;;;9.80;61.00;;;;;;2081101;28;20033;-86
2021/04/29 03:42:42;;;;;;;6.90;4.47;;;9.70;61.60;;;;;;2079881;28;20053;-87
2021/04/29 03:43:42;;;;;;;5.95;4.20;;;9.80;61.10;;;;;;2075112;28;20025;-86
2021/04/29 03:44:43;;;;;;;9.13;4.80;;;9.80;61.80;;;;;;2093275;28;20107;-87
2021/04/29 03:45:43;;;;;;;5.95;4.38;;;9.80;61.20;;;;;;2093833;28;20108;-86
2021/04/29 03:46:44;;;;;;;6.85;4.75;;;9.80;61.10;;;;;;2085906;28;20103;-86
2021/04/29 03:47:45;;;;;;;7.03;4.80;;;9.80;61.10;;;;;;2085283;28;20053;-87
2021/04/29 03:48:45;;;;;;;6.00;4.55;;;9.80;61.10;;;;;;2083133;28;20120;-86
2021/04/29 03:49:46;;;;;;;7.65;4.80;;;9.80;61.10;;;;;;2081614;28;20427;-87
2021/04/29 03:50:47;;;;;;;7.13;4.40;;;9.80;61.10;;;;;;2076053;28;20208;-87
2021/04/29 03:51:47;;;;;;;7.00;4.65;;;9.80;61.10;;;;;;2073019;28;20053;-86
2021/04/29 03:52:48;;;;;;;6.35;4.50;;;9.80;61.20;;;;;;2081122;28;20044;-87
2021/04/29 03:53:49;;;;;;;7.47;4.97;;;9.80;61.20;;;;;;2086056;28;20482;-87
2021/04/29 03:54:49;;;;;;;8.40;5.20;;;9.80;61.20;;;;;;2067787;28;20125;-87
2021/04/29 03:55:50;;;;;;;6.65;4.57;;;9.80;61.20;;;;;;2066754;28;20535;-86
2021/04/29 03:56:51;;;;;;;7.35;5.05;;;9.80;61.30;;;;;;2067708;28;20073;-86
2021/04/29 03:57:53;;;;;;;7.40;5.20;;;9.80;61.30;;;;;;2070882;28;20022;-87
2021/04/29 03:58:54;;;;;;;6.65;4.45;;;9.80;61.30;;;;;;2069097;28;20028;-86
2021/04/29 03:59:54;;;;;;;6.55;4.63;;;9.80;61.40;;;;;;2064553;28;20049;-87
2021/04/29 04:00:55;;;;;;;7.28;5.10;;;9.80;61.30;;;;;;2068551;28;20026;-87
2021/04/29 04:01:56;;;;;;;7.65;5.15;;;9.80;61.40;;;;;;2065046;28;20514;-86
2021/04/29 04:02:56;;;;;;;7.97;5.10;;;9.80;61.50;;;;;;2078102;28;20029;-86
2021/04/29 04:03:57;;;;;;;7.68;5.20;;;9.80;61.50;;;;;;2072169;28;20018;-86
2021/04/29 04:04:58;;;;;;;7.75;5.07;;;9.70;61.40;;;;;;2080685;28;20033;-86
2021/04/29 04:05:58;;;;;;;7.63;4.93;;;9.70;61.50;;;;;;2091938;28;20502;-86
2021/04/29 04:06:59;;;;;;;8.13;4.88;;;9.70;61.60;;;;;;2096186;28;20028;-86
2021/04/29 04:07:59;;;;;;;8.60;5.25;;;9.70;61.70;;;;;;2084202;28;20061;-86
2021/04/29 04:09:00;;;;;;;8.77;5.38;;;9.70;61.80;;;;;;2064392;28;20034;-87
2021/04/29 04:10:02;;;;;;;7.53;5.03;;;9.70;61.70;;;;;;2072833;28;20088;-86
2021/04/29 04:11:03;;;;;;;6.93;4.90;;;9.70;61.90;;;;;;2081057;28;20070;-86
2021/04/29 04:12:05;;;;;;;7.18;4.97;;;9.70;62.00;;;;;;2072748;28;20044;-86
2021/04/29 04:13:06;;;;;;;9.65;6.00;;;9.60;62.20;;;;;;2064460;28;20105;-86
2021/04/29 04:14:06;;;;;;;8.10;5.57;;;9.60;62.30;;;;;;2063897;28;20026;-87
2021/04/29 04:15:07;;;;;;;8.35;6.00;;;9.60;62.50;;;;;;2070115;28;20023;-85
2021/04/29 04:16:11;;;;;;;7.53;5.25;;;9.50;62.70;;;;;;2078816;28;20025;-85
2021/04/29 04:17:12;;;;;;;8.32;5.72;;;9.50;62.90;;;;;;2074479;28;20030;-86
2021/04/29 04:18:13;;;;;;;7.55;5.20;;;9.50;63.10;;;;;;2072611;28;20704;-86
2021/04/29 04:19:14;;;;;;;7.93;5.22;;;9.40;63.30;;;;;;2071140;28;20076;-86
2021/04/29 04:20:15;;;;;;;7.43;5.18;;;9.40;63.50;;;;;;2075032;28;20480;-85
2021/04/29 04:21:15;;;;;;;8.35;5.30;;;9.40;63.70;;;;;;2068908;28;20117;-85
2021/04/29 04:22:16;;;;;;;7.38;5.35;;;9.40;63.90;;;;;;2057860;28;20034;-86
2021/04/29 04:23:18;;;;;;;7.45;5.32;;;9.40;64.00;;;;;;2070351;28;20049;-85
2021/04/29 04:24:18;;;;;;;7.03;4.75;;;9.30;64.10;;;;;;2075975;28;20030;-83
2021/04/29 04:25:19;;;;;;;7.10;4.90;;;9.30;64.20;;;;;;2077655;28;20377;-86
2021/04/29 04:26:20;;;;;;;7.57;5.32;;;9.30;64.30;;;;;;2072546;28;20908;-87
2021/04/29 04:27:20;;;;;;;8.18;5.53;;;9.30;64.40;;;;;;2077113;28;20554;-87
2021/04/29 04:28:21;;;;;;;9.05;6.30;;;9.20;64.80;;;;;;2080376;28;20072;-86
2021/04/29 04:29:21;;;;;;;8.98;6.03;;;9.10;65.00;;;;;;2075970;28;20033;-88
2021/04/29 04:30:22;;;;;;;7.90;5.28;;;9.00;65.20;;;;;;2076422;28;20413;-87
2021/04/29 04:31:23;;;;;;;8.65;6.20;;;9.00;65.40;;;;;;2072403;28;20553;-87
2021/04/29 04:32:23;;;;;;;8.95;5.50;;;8.90;65.70;;;;;;2067865;28;20034;-87
2021/04/29 04:33:24;;;;;;;8.85;5.70;;;8.80;65.90;;;;;;2074764;28;20034;-86
2021/04/29 04:34:25;;;;;;;10.73;6.55;;;8.70;66.20;;;;;;2068011;28;20031;-86
2021/04/29 04:35:25;;;;;;;9.70;6.32;;;8.70;66.80;;;;;;2085625;28;20044;-87
2021/04/29 04:36:26;;;;;;;8.57;6.22;;;8.60;67.00;;;;;;2072127;28;20057;-87
2021/04/29 04:37:26;;;;;;;8.65;6.10;;;8.50;67.30;;;;;;2080412;28;20028;-87
2021/04/29 04:38:27;;;;;;;8.90;5.93;;;8.50;67.50;;;;;;2085828;28;20554;-87
2021/04/29 04:39:28;;;;;;;9.27;6.75;;;8.40;67.90;;;;;;2077235;28;20068;-87
2021/04/29 04:40:29;;;;;;;10.68;7.50;;;8.30;68.40;;;;;;2075026;28;20041;-87
2021/04/29 04:41:31;;;;;;;12.35;7.45;;;8.30;68.90;;;;;;2071305;28;20030;-87
2021/04/29 04:42:32;;;;;;;10.65;7.20;;;8.20;69.30;;;;;;2067990;28;20066;-87
2021/04/29 04:43:33;;;;;;;11.32;7.40;;;8.10;69.60;;;;;;2075271;28;20064;-86
2021/04/29 04:44:33;;;;;;;11.85;6.95;;;8.00;70.00;;;;;;2085266;28;20029;-86
2021/04/29 04:45:35;;;;;;;10.23;7.18;;;8.00;70.50;;;;;;2081527;28;20031;-87
2021/04/29 04:46:35;;;;;;;12.68;7.05;;;7.90;70.60;;;;;;2070297;28;20041;-87
2021/04/29 04:47:37;;;;;;;11.35;6.80;;;7.90;70.90;;;;;;2071637;28;20522;-86
2021/04/29 04:48:37;;;;;;;10.52;7.10;;;7.80;71.10;;;;;;2072748;28;20049;-87
2021/04/29 04:49:38;;;;;;;10.57;6.63;;;7.80;71.30;;;;;;2077929;28;20025;-87
2021/04/29 04:50:39;;;;;;;10.65;6.75;;;7.70;71.70;;;;;;2083455;28;20032;-87
2021/04/29 04:51:41;;;;;;;10.38;6.75;;;7.80;71.80;;;;;;2079984;28;20030;-87
2021/04/29 04:52:42;;;;;;;9.70;6.47;;;7.80;72.00;;;;;;2087909;28;20048;-87
2021/04/29 04:53:43;;;;;;;8.65;6.53;;;7.80;72.00;;;;;;2078241;28;20391;-87
2021/04/29 04:54:43;;;;;;;8.70;6.18;;;7.80;72.00;;;;;;2078382;28;20065;-87
2021/04/29 04:55:47;;;;;;;8.25;5.68;;;7.80;72.20;;;;;;2071964;28;20049;-87
2021/04/29 04:56:48;;;;;;;9.60;6.53;;;7.80;72.20;;;;;;2072762;28;20026;-87
2021/04/29 04:57:49;;;;;;;9.77;6.45;;;7.90;72.30;;;;;;2074697;28;20022;-87
2021/04/29 04:58:49;;;;;;;8.05;6.03;;;7.90;72.40;;;;;;2069660;28;20137;-87
2021/04/29 04:59:50;;;;;;;9.55;6.40;;;7.90;72.50;;;;;;2079928;28;20017;-87
2021/04/29 05:00:51;;;;;;;8.65;5.95;;;8.00;72.50;;;;;;2085008;28;20033;-86
2021/04/29 05:01:51;;;;;;;8.82;6.13;;;8.00;72.50;;;;;;2063445;28;20030;-86
2021/04/29 05:02:52;;;;;;;7.72;5.30;;;8.00;72.60;;;;;;2076789;28;20103;-86
2021/04/29 05:03:54;;;;;;;9.52;6.15;;;8.00;72.70;;;;;;2080634;28;20037;-86
2021/04/29 05:04:55;;;;;;;8.35;6.20;;;8.00;72.70;;;;;;2065531;28;20034;-86
2021/04/29 05:05:56;;;;;;;8.82;5.80;;;8.00;72.70;;;;;;2064443;28;20412;-86
2021/04/29 05:06:56;;;;;;;8.18;5.85;;;8.00;72.90;;;;;;2070032;28;20022;-86
2021/04/29 05:08:00;;;;;;;9.10;6.38;;;8.10;73.00;;;;;;2064080;28;20496;-86
2021/04/29 05:09:00;;;;;;;8.57;6.45;;;8.10;73.10;;;;;;2073130;28;20018;-86
2021/04/29 05:10:01;;;;;;;8.80;6.30;;;8.10;73.20;;;;;;2069567;28;20444;-85
2021/04/29 05:11:02;;;;;;;8.50;5.90;;;8.10;73.20;;;;;;2064156;28;20495;-85
2021/04/29 05:12:03;;;;;;;9.63;6.63;;;8.20;73.30;;;;;;2063850;28;20037;-86
2021/04/29 05:13:06;;;;;;;9.45;6.43;;;8.20;73.30;;;;;;2069685;28;20373;-86
2021/04/29 05:14:07;;;;;;;8.90;5.93;;;8.20;73.40;;;;;;2073228;28;20032;-85
2021/04/29 05:15:08;;;;;;;8.30;6.25;;;8.20;73.40;;;;;;2071546;28;20018;-85
2021/04/29 05:16:09;;;;;;;8.98;6.30;;;8.30;73.60;;;;;;2072611;28;20042;-86
2021/04/29 05:17:09;;;;;;;8.90;6.43;;;8.30;73.60;;;;;;2062254;28;20472;-86
2021/04/29 05:18:10;;;;;;;8.52;6.25;;;8.30;73.60;;;;;;2065350;28;20034;-86
2021/04/29 05:19:11;;;;;;;9.38;6.35;;;8.30;73.70;;;;;;2074033;28;20036;-86
2021/04/29 05:20:12;;;;;;;9.15;6.55;;;8.30;73.80;;;;;;2069786;28;20030;-86
2021/04/29 05:21:13;;;;;;;8.80;6.13;;;8.30;74.50;;;;;;2067129;28;20033;-84
2021/04/29 05:22:15;;;;;;;9.25;6.65;;;8.30;73.90;;;;;;2071078;28;20429;-86
2021/04/29 05:23:16;;;;;;;8.68;6.40;;;8.40;74.00;;;;;;2073658;28;20113;-86
2021/04/29 05:24:16;;;;;;;8.77;6.35;;;8.40;74.10;;;;;;2075386;28;20041;-84